sensor_id;sensor_type;location;lat;lon;timestamp;pressure;altitude;pressure_sealevel;temperature;humidity
80945;BME280;70400;50.934;11.590;2024-02-14T00:00:02;100494.34;;;3.75;80.09
80945;BME280;70400;50.934;11.590;2024-02-14T00:00:54;100499.91;;;3.69;79.53
80945;BME280;70400;50.934;11.590;2024-02-14T00:01:46;100492.09;;;3.69;80.09
80945;BME280;70400;50.934;11.590;2024-02-14T00:02:37;100487.78;;;3.68;80.00
80945;BME280;70400;50.934;11.590;2024-02-14T00:03:28;100491.47;;;3.80;80.11
80945;BME280;70400;50.934;11.590;2024-02-14T00:04:19;100491.47;;;3.80;79.78
80945;BME280;70400;50.934;11.590;2024-02-14T00:05:11;100498.19;;;3.84;79.46
80945;BME280;70400;50.934;11.590;2024-02-14T00:06:04;100488.78;;;3.81;79.32
80945;BME280;70400;50.934;11.590;2024-02-14T00:06:56;100490.91;;;3.75;79.52
80945;BME280;70400;50.934;11.590;2024-02-14T00:07:47;100492.75;;;3.73;79.41
80945;BME280;70400;50.934;11.590;2024-02-14T00:08:38;100491.09;;;3.72;79.63
80945;BME280;70400;50.934;11.590;2024-02-14T00:09:29;100491.66;;;3.77;79.62
80945;BME280;70400;50.934;11.590;2024-02-14T00:10:20;100495.53;;;3.69;79.83
80945;BME280;70400;50.934;11.590;2024-02-14T00:11:11;100492.00;;;3.70;79.78
80945;BME280;70400;50.934;11.590;2024-02-14T00:12:02;100488.47;;;3.72;80.22
80945;BME280;70400;50.934;11.590;2024-02-14T00:12:54;100486.69;;;3.72;80.26
80945;BME280;70400;50.934;11.590;2024-02-14T00:13:45;100486.44;;;3.77;80.11
80945;BME280;70400;50.934;11.590;2024-02-14T00:14:36;100492.38;;;3.79;79.92
80945;BME280;70400;50.934;11.590;2024-02-14T00:15:26;100485.69;;;3.75;80.14
80945;BME280;70400;50.934;11.590;2024-02-14T00:16:17;100488.13;;;3.78;80.15
80945;BME280;70400;50.934;11.590;2024-02-14T00:17:09;100486.44;;;3.77;80.11
80945;BME280;70400;50.934;11.590;2024-02-14T00:18:01;100475.84;;;3.80;79.56
80945;BME280;70400;50.934;11.590;2024-02-14T00:18:52;100480.38;;;3.76;79.73
80945;BME280;70400;50.934;11.590;2024-02-14T00:19:42;100483.72;;;3.78;80.04
80945;BME280;70400;50.934;11.590;2024-02-14T00:20:34;100481.03;;;3.80;79.78
80945;BME280;70400;50.934;11.590;2024-02-14T00:21:26;100481.22;;;3.77;80.06
80945;BME280;70400;50.934;11.590;2024-02-14T00:22:17;100477.75;;;3.76;79.79
80945;BME280;70400;50.934;11.590;2024-02-14T00:23:08;100481.31;;;3.75;79.86
80945;BME280;70400;50.934;11.590;2024-02-14T00:24:00;100478.03;;;3.72;79.88
80945;BME280;70400;50.934;11.590;2024-02-14T00:24:52;100476.84;;;3.77;80.14
80945;BME280;70400;50.934;11.590;2024-02-14T00:25:43;100478.34;;;3.81;79.72
80945;BME280;70400;50.934;11.590;2024-02-14T00:26:34;100479.44;;;3.77;79.67
80945;BME280;70400;50.934;11.590;2024-02-14T00:27:26;100472.38;;;3.79;79.84
80945;BME280;70400;50.934;11.590;2024-02-14T00:28:18;100475.00;;;3.79;79.51
80945;BME280;70400;50.934;11.590;2024-02-14T00:29:09;100472.22;;;3.82;79.92
80945;BME280;70400;50.934;11.590;2024-02-14T00:30:00;100472.97;;;3.84;79.67
80945;BME280;70400;50.934;11.590;2024-02-14T00:30:50;100470.34;;;3.84;79.78
80945;BME280;70400;50.934;11.590;2024-02-14T00:31:41;100472.03;;;3.85;79.50
80945;BME280;70400;50.934;11.590;2024-02-14T00:32:35;100470.00;;;3.90;79.25
80945;BME280;70400;50.934;11.590;2024-02-14T00:33:26;100473.94;;;3.98;79.27
80945;BME280;70400;50.934;11.590;2024-02-14T00:34:17;100473.09;;;3.97;78.95
80945;BME280;70400;50.934;11.590;2024-02-14T00:35:08;100476.44;;;3.99;79.18
80945;BME280;70400;50.934;11.590;2024-02-14T00:35:59;100480.81;;;3.99;79.17
80945;BME280;70400;50.934;11.590;2024-02-14T00:36:50;100468.78;;;3.96;79.11
80945;BME280;70400;50.934;11.590;2024-02-14T00:37:41;100477.19;;;4.01;78.90
80945;BME280;70400;50.934;11.590;2024-02-14T00:38:32;100474.97;;;4.09;78.67
80945;BME280;70400;50.934;11.590;2024-02-14T00:39:23;100470.88;;;4.05;78.47
80945;BME280;70400;50.934;11.590;2024-02-14T00:40:14;100473.13;;;4.11;78.62
80945;BME280;70400;50.934;11.590;2024-02-14T00:41:05;100467.13;;;4.09;78.33
80945;BME280;70400;50.934;11.590;2024-02-14T00:41:56;100464.38;;;4.12;78.36
80945;BME280;70400;50.934;11.590;2024-02-14T00:42:47;100461.66;;;4.14;78.38
80945;BME280;70400;50.934;11.590;2024-02-14T00:43:38;100466.78;;;4.16;78.63
80945;BME280;70400;50.934;11.590;2024-02-14T00:44:29;100466.78;;;4.16;78.02
80945;BME280;70400;50.934;11.590;2024-02-14T00:45:19;100475.38;;;4.18;78.39
80945;BME280;70400;50.934;11.590;2024-02-14T00:46:16;100464.75;;;4.21;77.81
80945;BME280;70400;50.934;11.590;2024-02-14T00:47:07;100468.13;;;4.23;77.86
80945;BME280;70400;50.934;11.590;2024-02-14T00:47:58;100474.00;;;4.26;77.78
80945;BME280;70400;50.934;11.590;2024-02-14T00:48:49;100469.59;;;4.27;77.47
80945;BME280;70400;50.934;11.590;2024-02-14T00:49:40;100470.28;;;4.30;77.42
80945;BME280;70400;50.934;11.590;2024-02-14T00:50:32;100453.94;;;4.27;77.46
80945;BME280;70400;50.934;11.590;2024-02-14T00:51:24;100465.22;;;4.27;77.66
80945;BME280;70400;50.934;11.590;2024-02-14T00:52:15;100469.53;;;4.28;77.78
80945;BME280;70400;50.934;11.590;2024-02-14T00:53:07;100462.25;;;4.33;77.67
80945;BME280;70400;50.934;11.590;2024-02-14T00:53:58;100464.69;;;4.37;77.43
80945;BME280;70400;50.934;11.590;2024-02-14T00:54:49;100462.81;;;4.39;77.46
80945;BME280;70400;50.934;11.590;2024-02-14T00:55:40;100458.44;;;4.39;76.93
80945;BME280;70400;50.934;11.590;2024-02-14T00:56:31;100459.81;;;4.45;76.59
80945;BME280;70400;50.934;11.590;2024-02-14T00:57:22;100464.22;;;4.44;77.00
80945;BME280;70400;50.934;11.590;2024-02-14T00:58:16;100464.22;;;4.44;76.94
80945;BME280;70400;50.934;11.590;2024-02-14T00:59:07;100460.38;;;4.50;76.63
80945;BME280;70400;50.934;11.590;2024-02-14T00:59:58;100462.91;;;4.51;76.52
80945;BME280;70400;50.934;11.590;2024-02-14T01:00:50;100464.59;;;4.52;76.75
80945;BME280;70400;50.934;11.590;2024-02-14T01:01:41;100464.03;;;4.47;76.84
80945;BME280;70400;50.934;11.590;2024-02-14T01:02:32;100453.59;;;4.47;76.54
80945;BME280;70400;50.934;11.590;2024-02-14T01:03:23;100463.13;;;4.48;76.88
80945;BME280;70400;50.934;11.590;2024-02-14T01:04:15;100460.84;;;4.42;76.96
80945;BME280;70400;50.934;11.590;2024-02-14T01:05:06;100462.91;;;4.51;77.05
80945;BME280;70400;50.934;11.590;2024-02-14T01:05:57;100460.31;;;4.51;76.96
80945;BME280;70400;50.934;11.590;2024-02-14T01:06:48;100460.22;;;4.53;76.93
80945;BME280;70400;50.934;11.590;2024-02-14T01:07:40;100462.72;;;4.54;76.69
80945;BME280;70400;50.934;11.590;2024-02-14T01:08:31;100458.66;;;4.50;77.13
80945;BME280;70400;50.934;11.590;2024-02-14T01:09:22;100460.31;;;4.51;77.23
80945;BME280;70400;50.934;11.590;2024-02-14T01:10:13;100465.53;;;4.51;77.01
80945;BME280;70400;50.934;11.590;2024-02-14T01:11:04;100454.13;;;4.52;76.93
80945;BME280;70400;50.934;11.590;2024-02-14T01:11:55;100466.84;;;4.59;76.80
80945;BME280;70400;50.934;11.590;2024-02-14T01:12:46;100454.53;;;4.61;76.80
80945;BME280;70400;50.934;11.590;2024-02-14T01:13:37;100450.44;;;4.56;77.02
80945;BME280;70400;50.934;11.590;2024-02-14T01:14:28;100457.16;;;4.61;76.94
80945;BME280;70400;50.934;11.590;2024-02-14T01:15:21;100452.00;;;4.59;76.62
80945;BME280;70400;50.934;11.590;2024-02-14T01:16:13;100453.59;;;4.62;76.71
80945;BME280;70400;50.934;11.590;2024-02-14T01:17:05;100456.38;;;4.73;76.74
80945;BME280;70400;50.934;11.590;2024-02-14T01:17:56;100457.78;;;4.64;76.34
80945;BME280;70400;50.934;11.590;2024-02-14T01:18:47;100457.78;;;4.64;76.46
80945;BME280;70400;50.934;11.590;2024-02-14T01:19:38;100459.56;;;4.64;76.41
80945;BME280;70400;50.934;11.590;2024-02-14T01:20:29;100457.72;;;4.66;76.30
80945;BME280;70400;50.934;11.590;2024-02-14T01:21:20;100459.28;;;4.68;76.63
80945;BME280;70400;50.934;11.590;2024-02-14T01:22:11;100458.44;;;4.68;76.45
80945;BME280;70400;50.934;11.590;2024-02-14T01:23:02;100460.88;;;4.71;76.03
80945;BME280;70400;50.934;11.590;2024-02-14T01:23:53;100459.94;;;4.72;76.12
80945;BME280;70400;50.934;11.590;2024-02-14T01:24:44;100458.28;;;4.71;76.01
80945;BME280;70400;50.934;11.590;2024-02-14T01:25:35;100454.16;;;4.67;76.16
80945;BME280;70400;50.934;11.590;2024-02-14T01:26:26;100456.75;;;4.67;76.24
80945;BME280;70400;50.934;11.590;2024-02-14T01:27:17;100455.19;;;4.64;76.31
80945;BME280;70400;50.934;11.590;2024-02-14T01:28:09;100456.00;;;4.65;76.62
80945;BME280;70400;50.934;11.590;2024-02-14T01:29:00;100453.50;;;4.63;76.83
80945;BME280;70400;50.934;11.590;2024-02-14T01:29:51;100452.66;;;4.63;77.47
80945;BME280;70400;50.934;11.590;2024-02-14T01:30:43;100453.22;;;4.68;76.70
80945;BME280;70400;50.934;11.590;2024-02-14T01:31:34;100454.50;;;4.75;76.28
80945;BME280;70400;50.934;11.590;2024-02-14T01:32:25;100451.47;;;4.68;76.48
80945;BME280;70400;50.934;11.590;2024-02-14T01:33:19;100450.03;;;4.63;76.60
80945;BME280;70400;50.934;11.590;2024-02-14T01:34:11;100455.09;;;4.66;76.86
80945;BME280;70400;50.934;11.590;2024-02-14T01:35:02;100454.22;;;4.65;76.21
80945;BME280;70400;50.934;11.590;2024-02-14T01:35:54;100454.16;;;4.67;76.78
80945;BME280;70400;50.934;11.590;2024-02-14T01:36:47;100449.13;;;4.64;76.71
80945;BME280;70400;50.934;11.590;2024-02-14T01:37:38;100449.56;;;4.70;76.91
80945;BME280;70400;50.934;11.590;2024-02-14T01:38:32;100458.63;;;4.65;76.87
80945;BME280;70400;50.934;11.590;2024-02-14T01:39:26;100449.00;;;4.65;76.81
80945;BME280;70400;50.934;11.590;2024-02-14T01:40:17;100445.00;;;4.60;76.66
80945;BME280;70400;50.934;11.590;2024-02-14T01:41:08;100447.81;;;4.56;76.81
80945;BME280;70400;50.934;11.590;2024-02-14T01:41:59;100443.63;;;4.54;77.15
80945;BME280;70400;50.934;11.590;2024-02-14T01:42:50;100437.75;;;4.50;77.18
80945;BME280;70400;50.934;11.590;2024-02-14T01:43:43;100444.25;;;4.57;76.87
80945;BME280;70400;50.934;11.590;2024-02-14T01:44:35;100446.16;;;4.55;77.18
80945;BME280;70400;50.934;11.590;2024-02-14T01:45:27;100441.47;;;4.61;76.78
80945;BME280;70400;50.934;11.590;2024-02-14T01:46:18;100445.69;;;4.63;76.99
80945;BME280;70400;50.934;11.590;2024-02-14T01:47:12;100445.28;;;4.69;76.86
80945;BME280;70400;50.934;11.590;2024-02-14T01:48:03;100440.72;;;4.59;76.74
80945;BME280;70400;50.934;11.590;2024-02-14T01:48:57;100446.72;;;4.61;76.95
80945;BME280;70400;50.934;11.590;2024-02-14T01:49:48;100441.38;;;4.62;77.11
80945;BME280;70400;50.934;11.590;2024-02-14T01:50:39;100438.75;;;4.62;76.84
80945;BME280;70400;50.934;11.590;2024-02-14T01:51:32;100440.16;;;4.68;76.56
80945;BME280;70400;50.934;11.590;2024-02-14T01:52:22;100442.75;;;4.68;76.47
80945;BME280;70400;50.934;11.590;2024-02-14T01:53:13;100442.75;;;4.68;75.98
80945;BME280;70400;50.934;11.590;2024-02-14T01:54:04;100435.66;;;4.70;76.20
80945;BME280;70400;50.934;11.590;2024-02-14T01:54:56;100433.06;;;4.70;76.31
80945;BME280;70400;50.934;11.590;2024-02-14T01:55:48;100441.56;;;4.73;76.31
80945;BME280;70400;50.934;11.590;2024-02-14T01:56:42;100432.31;;;4.82;75.63
80945;BME280;70400;50.934;11.590;2024-02-14T01:57:35;100424.56;;;4.81;75.94
80945;BME280;70400;50.934;11.590;2024-02-14T01:58:29;100428.88;;;4.82;75.31
80945;BME280;70400;50.934;11.590;2024-02-14T01:59:20;100425.09;;;4.86;75.05
80945;BME280;70400;50.934;11.590;2024-02-14T02:00:12;100431.19;;;4.86;75.00
80945;BME280;70400;50.934;11.590;2024-02-14T02:01:08;100429.13;;;4.91;74.95
80945;BME280;70400;50.934;11.590;2024-02-14T02:02:00;100425.03;;;4.87;75.29
80945;BME280;70400;50.934;11.590;2024-02-14T02:02:51;100426.13;;;4.83;75.12
80945;BME280;70400;50.934;11.590;2024-02-14T02:03:43;100425.66;;;4.91;74.94
80945;BME280;70400;50.934;11.590;2024-02-14T02:04:34;100428.19;;;4.92;75.08
80945;BME280;70400;50.934;11.590;2024-02-14T02:05:25;100424.75;;;4.92;75.06
80945;BME280;70400;50.934;11.590;2024-02-14T02:06:17;100425.50;;;4.94;74.77
80945;BME280;70400;50.934;11.590;2024-02-14T02:07:08;100422.00;;;4.93;74.91
80945;BME280;70400;50.934;11.590;2024-02-14T02:07:58;100427.56;;;4.89;74.67
80945;BME280;70400;50.934;11.590;2024-02-14T02:08:49;100431.91;;;4.88;74.77
80945;BME280;70400;50.934;11.590;2024-02-14T02:09:41;100425.78;;;4.89;74.98
80945;BME280;70400;50.934;11.590;2024-02-14T02:10:32;100427.63;;;4.87;75.28
80945;BME280;70400;50.934;11.590;2024-02-14T02:11:26;100416.97;;;4.90;75.00
80945;BME280;70400;50.934;11.590;2024-02-14T02:12:17;100413.81;;;4.99;74.81
80945;BME280;70400;50.934;11.590;2024-02-14T02:13:09;100422.41;;;5.02;74.80
80945;BME280;70400;50.934;11.590;2024-02-14T02:14:00;100423.31;;;5.00;74.60
80945;BME280;70400;50.934;11.590;2024-02-14T02:14:51;100413.13;;;4.96;75.24
80945;BME280;70400;50.934;11.590;2024-02-14T02:15:42;100418.28;;;4.97;75.30
80945;BME280;70400;50.934;11.590;2024-02-14T02:16:35;100414.91;;;4.95;74.95
80945;BME280;70400;50.934;11.590;2024-02-14T02:17:27;100407.63;;;5.00;74.98
80945;BME280;70400;50.934;11.590;2024-02-14T02:18:18;100411.38;;;4.96;74.81
80945;BME280;70400;50.934;11.590;2024-02-14T02:19:09;100409.69;;;4.95;74.73
80945;BME280;70400;50.934;11.590;2024-02-14T02:20:01;100412.69;;;4.89;75.16
80945;BME280;70400;50.934;11.590;2024-02-14T02:20:53;100414.00;;;4.96;75.09
80945;BME280;70400;50.934;11.590;2024-02-14T02:21:44;100409.31;;;5.02;74.84
80945;BME280;70400;50.934;11.590;2024-02-14T02:22:44;100415.28;;;5.04;74.96
80945;BME280;70400;50.934;11.590;2024-02-14T02:23:35;100411.63;;;5.06;74.68
80945;BME280;70400;50.934;11.590;2024-02-14T02:24:26;100407.44;;;5.04;74.72
80945;BME280;70400;50.934;11.590;2024-02-14T02:25:17;100414.56;;;5.02;74.73
80945;BME280;70400;50.934;11.590;2024-02-14T02:26:08;100411.19;;;4.99;74.81
80945;BME280;70400;50.934;11.590;2024-02-14T02:26:59;100415.88;;;4.94;75.04
80945;BME280;70400;50.934;11.590;2024-02-14T02:27:50;100412.03;;;5.00;74.84
80945;BME280;70400;50.934;11.590;2024-02-14T02:28:41;100410.16;;;5.02;74.43
80945;BME280;70400;50.934;11.590;2024-02-14T02:29:33;100413.53;;;5.04;74.77
80945;BME280;70400;50.934;11.590;2024-02-14T02:30:24;100410.16;;;5.02;74.77
80945;BME280;70400;50.934;11.590;2024-02-14T02:31:16;100406.38;;;5.06;74.83
80945;BME280;70400;50.934;11.590;2024-02-14T02:32:06;100412.28;;;5.10;74.62
80945;BME280;70400;50.934;11.590;2024-02-14T02:32:59;100410.00;;;5.18;74.33
80945;BME280;70400;50.934;11.590;2024-02-14T02:33:51;100413.56;;;5.17;74.36
80945;BME280;70400;50.934;11.590;2024-02-14T02:34:42;100407.69;;;5.13;74.46
80945;BME280;70400;50.934;11.590;2024-02-14T02:35:34;100410.72;;;5.07;74.54
80945;BME280;70400;50.934;11.590;2024-02-14T02:36:25;100406.78;;;5.14;74.43
80945;BME280;70400;50.934;11.590;2024-02-14T02:37:20;100405.28;;;5.10;74.54
80945;BME280;70400;50.934;11.590;2024-02-14T02:38:11;100416.28;;;5.15;74.28
80945;BME280;70400;50.934;11.590;2024-02-14T02:39:02;100406.78;;;5.14;74.16
80945;BME280;70400;50.934;11.590;2024-02-14T02:39:54;100409.66;;;5.10;74.11
80945;BME280;70400;50.934;11.590;2024-02-14T02:40:45;100408.53;;;5.14;74.09
80945;BME280;70400;50.934;11.590;2024-02-14T02:41:36;100406.78;;;5.14;73.90
80945;BME280;70400;50.934;11.590;2024-02-14T02:42:27;100402.38;;;5.15;73.73
80945;BME280;70400;50.934;11.590;2024-02-14T02:43:19;100399.66;;;5.16;73.96
80945;BME280;70400;50.934;11.590;2024-02-14T02:44:10;100403.13;;;5.17;73.79
80945;BME280;70400;50.934;11.590;2024-02-14T02:45:01;100404.69;;;5.19;73.68
80945;BME280;70400;50.934;11.590;2024-02-14T02:45:56;100408.22;;;5.18;73.75
80945;BME280;70400;50.934;11.590;2024-02-14T02:46:48;100403.13;;;5.17;73.79
80945;BME280;70400;50.934;11.590;2024-02-14T02:47:39;100405.91;;;5.14;73.42
80945;BME280;70400;50.934;11.590;2024-02-14T02:48:30;100406.38;;;5.20;73.91
80945;BME280;70400;50.934;11.590;2024-02-14T02:49:22;100402.72;;;5.23;73.48
80945;BME280;70400;50.934;11.590;2024-02-14T02:50:13;100403.53;;;5.23;73.21
80945;BME280;70400;50.934;11.590;2024-02-14T02:51:04;100408.69;;;5.25;73.10
80945;BME280;70400;50.934;11.590;2024-02-14T02:51:55;100406.69;;;5.29;72.66
80945;BME280;70400;50.934;11.590;2024-02-14T02:52:46;100406.81;;;5.27;72.95
80945;BME280;70400;50.934;11.590;2024-02-14T02:53:37;100396.34;;;5.27;72.67
80945;BME280;70400;50.934;11.590;2024-02-14T02:54:28;100399.06;;;5.26;72.91
80945;BME280;70400;50.934;11.590;2024-02-14T02:55:19;100395.81;;;5.22;72.69
80945;BME280;70400;50.934;11.590;2024-02-14T02:56:10;100401.31;;;5.32;72.88
80945;BME280;70400;50.934;11.590;2024-02-14T02:57:02;100394.00;;;5.37;71.95
80945;BME280;70400;50.934;11.590;2024-02-14T02:57:56;100391.16;;;5.40;72.32
80945;BME280;70400;50.934;11.590;2024-02-14T02:58:46;100397.22;;;5.40;71.80
80945;BME280;70400;50.934;11.590;2024-02-14T02:59:39;100390.88;;;5.44;71.85
80945;BME280;70400;50.934;11.590;2024-02-14T03:00:33;100390.75;;;5.46;71.69
80945;BME280;70400;50.934;11.590;2024-02-14T03:01:24;100394.41;;;5.43;71.92
80945;BME280;70400;50.934;11.590;2024-02-14T03:02:20;100395.69;;;5.51;71.13
80945;BME280;70400;50.934;11.590;2024-02-14T03:03:11;100395.59;;;5.52;70.99
80945;BME280;70400;50.934;11.590;2024-02-14T03:04:05;100387.31;;;5.46;71.11
80945;BME280;70400;50.934;11.590;2024-02-14T03:04:56;100390.56;;;5.49;71.42
80945;BME280;70400;50.934;11.590;2024-02-14T03:05:47;100390.47;;;5.51;71.58
80945;BME280;70400;50.934;11.590;2024-02-14T03:06:39;100395.69;;;5.51;71.49
80945;BME280;70400;50.934;11.590;2024-02-14T03:07:30;100387.56;;;5.55;70.96
80945;BME280;70400;50.934;11.590;2024-02-14T03:08:21;100392.13;;;5.52;71.07
80945;BME280;70400;50.934;11.590;2024-02-14T03:09:16;100391.00;;;5.56;70.65
80945;BME280;70400;50.934;11.590;2024-02-14T03:10:08;100387.97;;;5.62;70.22
80945;BME280;70400;50.934;11.590;2024-02-14T03:11:06;100393.94;;;5.64;70.47
80945;BME280;70400;50.934;11.590;2024-02-14T03:11:57;100383.25;;;5.67;70.32
80945;BME280;70400;50.934;11.590;2024-02-14T03:12:48;100381.38;;;5.69;70.13
80945;BME280;70400;50.934;11.590;2024-02-14T03:13:39;100387.16;;;5.74;70.20
80945;BME280;70400;50.934;11.590;2024-02-14T03:14:32;100387.06;;;5.76;70.03
80945;BME280;70400;50.934;11.590;2024-02-14T03:15:23;100387.59;;;5.68;70.10
80945;BME280;70400;50.934;11.590;2024-02-14T03:16:16;100380.84;;;5.64;70.13
80945;BME280;70400;50.934;11.590;2024-02-14T03:17:08;100377.19;;;5.66;70.79
80945;BME280;70400;50.934;11.590;2024-02-14T03:18:00;100379.06;;;5.64;70.56
80945;BME280;70400;50.934;11.590;2024-02-14T03:18:52;100381.69;;;5.64;70.27
80945;BME280;70400;50.934;11.590;2024-02-14T03:19:44;100377.13;;;5.68;70.05
80945;BME280;70400;50.934;11.590;2024-02-14T03:20:36;100381.31;;;5.71;70.38
80945;BME280;70400;50.934;11.590;2024-02-14T03:21:27;100377.84;;;5.70;69.94
80945;BME280;70400;50.934;11.590;2024-02-14T03:22:18;100377.94;;;5.69;70.43
80945;BME280;70400;50.934;11.590;2024-02-14T03:23:09;100377.84;;;5.70;70.19
80945;BME280;70400;50.934;11.590;2024-02-14T03:24:04;100377.13;;;5.68;70.44
80945;BME280;70400;50.934;11.590;2024-02-14T03:24:56;100384.97;;;5.68;70.09
80945;BME280;70400;50.934;11.590;2024-02-14T03:25:48;100378.97;;;5.66;70.67
80945;BME280;70400;50.934;11.590;2024-02-14T03:26:39;100378.16;;;5.65;70.82
80945;BME280;70400;50.934;11.590;2024-02-14T03:27:30;100377.13;;;5.68;70.44
80945;BME280;70400;50.934;11.590;2024-02-14T03:28:21;100375.63;;;5.64;70.57
80945;BME280;70400;50.934;11.590;2024-02-14T03:29:12;100376.28;;;5.68;70.45
80945;BME280;70400;50.934;11.590;2024-02-14T03:30:04;100373.84;;;5.64;70.65
80945;BME280;70400;50.934;11.590;2024-02-14T03:30:55;100378.16;;;5.65;70.51
80945;BME280;70400;50.934;11.590;2024-02-14T03:31:47;100370.41;;;5.64;70.72
80945;BME280;70400;50.934;11.590;2024-02-14T03:32:39;100365.16;;;5.64;70.50
80945;BME280;70400;50.934;11.590;2024-02-14T03:33:30;100366.84;;;5.65;71.04
80945;BME280;70400;50.934;11.590;2024-02-14T03:34:21;100367.91;;;5.75;70.51
80945;BME280;70400;50.934;11.590;2024-02-14T03:35:12;100364.88;;;5.69;70.63
80945;BME280;70400;50.934;11.590;2024-02-14T03:36:07;100362.75;;;5.61;70.60
80945;BME280;70400;50.934;11.590;2024-02-14T03:36:58;100355.34;;;5.68;70.84
80945;BME280;70400;50.934;11.590;2024-02-14T03:37:49;100359.94;;;5.64;70.57
80945;BME280;70400;50.934;11.590;2024-02-14T03:38:43;100356.69;;;5.60;71.05
80945;BME280;70400;50.934;11.590;2024-02-14T03:39:34;100356.38;;;5.65;70.92
80945;BME280;70400;50.934;11.590;2024-02-14T03:40:25;100357.44;;;5.62;70.90
80945;BME280;70400;50.934;11.590;2024-02-14T03:41:16;100353.88;;;5.63;70.41
80945;BME280;70400;50.934;11.590;2024-02-14T03:42:07;100354.69;;;5.64;70.38
80945;BME280;70400;50.934;11.590;2024-02-14T03:42:58;100350.94;;;5.68;70.55
80945;BME280;70400;50.934;11.590;2024-02-14T03:43:49;100352.19;;;5.62;70.25
80945;BME280;70400;50.934;11.590;2024-02-14T03:44:43;100356.47;;;5.63;70.41
80945;BME280;70400;50.934;11.590;2024-02-14T03:45:34;100355.22;;;5.69;71.19
80945;BME280;70400;50.934;11.590;2024-02-14T03:46:26;100356.56;;;5.62;70.45
80945;BME280;70400;50.934;11.590;2024-02-14T03:47:17;100350.28;;;5.64;70.87
80945;BME280;70400;50.934;11.590;2024-02-14T03:48:10;100348.84;;;5.60;70.64
80945;BME280;70400;50.934;11.590;2024-02-14T03:49:02;100352.81;;;5.66;70.86
80945;BME280;70400;50.934;11.590;2024-02-14T03:49:54;100359.22;;;5.75;70.68
80945;BME280;70400;50.934;11.590;2024-02-14T03:50:45;100354.59;;;5.65;70.60
80945;BME280;70400;50.934;11.590;2024-02-14T03:51:36;100353.13;;;5.61;70.71
80945;BME280;70400;50.934;11.590;2024-02-14T03:52:27;100356.28;;;5.66;71.26
80945;BME280;70400;50.934;11.590;2024-02-14T03:53:18;100349.69;;;5.61;71.20
80945;BME280;70400;50.934;11.590;2024-02-14T03:54:09;100346.09;;;5.62;71.41
80945;BME280;70400;50.934;11.590;2024-02-14T03:55:00;100343.19;;;5.66;71.30
80945;BME280;70400;50.934;11.590;2024-02-14T03:55:51;100341.53;;;5.65;71.05
80945;BME280;70400;50.934;11.590;2024-02-14T03:56:44;100342.78;;;5.60;70.99
80945;BME280;70400;50.934;11.590;2024-02-14T03:57:35;100344.53;;;5.59;71.44
80945;BME280;70400;50.934;11.590;2024-02-14T03:58:29;100349.69;;;5.61;70.83
80945;BME280;70400;50.934;11.590;2024-02-14T03:59:20;100344.66;;;5.71;71.05
80945;BME280;70400;50.934;11.590;2024-02-14T04:00:15;100346.53;;;5.69;70.92
80945;BME280;70400;50.934;11.590;2024-02-14T04:01:07;100346.47;;;5.70;71.22
80945;BME280;70400;50.934;11.590;2024-02-14T04:01:58;100350.41;;;5.63;70.60
80945;BME280;70400;50.934;11.590;2024-02-14T04:02:49;100345.06;;;5.64;70.78
80945;BME280;70400;50.934;11.590;2024-02-14T04:03:43;100344.22;;;5.64;70.46
80945;BME280;70400;50.934;11.590;2024-02-14T04:04:33;100349.88;;;5.58;70.40
80945;BME280;70400;50.934;11.590;2024-02-14T04:05:25;100352.00;;;5.65;70.52
80945;BME280;70400;50.934;11.590;2024-02-14T04:06:18;100354.91;;;5.61;70.49
80945;BME280;70400;50.934;11.590;2024-02-14T04:07:09;100347.59;;;5.66;70.30
80945;BME280;70400;50.934;11.590;2024-02-14T04:08:00;100353.56;;;5.68;70.36
80945;BME280;70400;50.934;11.590;2024-02-14T04:08:51;100347.16;;;5.72;70.25
80945;BME280;70400;50.934;11.590;2024-02-14T04:09:42;100343.19;;;5.66;69.96
80945;BME280;70400;50.934;11.590;2024-02-14T04:10:33;100341.53;;;5.65;69.81
80945;BME280;70400;50.934;11.590;2024-02-14T04:11:24;100342.56;;;5.63;69.89
80945;BME280;70400;50.934;11.590;2024-02-14T04:12:15;100343.41;;;5.63;70.37
80945;BME280;70400;50.934;11.590;2024-02-14T04:13:06;100340.88;;;5.62;70.21
80945;BME280;70400;50.934;11.590;2024-02-14T04:13:56;100341.09;;;5.59;70.31
80945;BME280;70400;50.934;11.590;2024-02-14T04:14:47;100338.47;;;5.59;70.36
80945;BME280;70400;50.934;11.590;2024-02-14T04:15:40;100339.44;;;5.71;70.59
80945;BME280;70400;50.934;11.590;2024-02-14T04:16:31;100348.63;;;5.63;70.28
80945;BME280;70400;50.934;11.590;2024-02-14T04:17:22;100342.44;;;5.64;70.02
80945;BME280;70400;50.934;11.590;2024-02-14T04:18:13;100346.22;;;5.60;70.72
80945;BME280;70400;50.934;11.590;2024-02-14T04:19:09;100343.50;;;5.62;70.85
80945;BME280;70400;50.934;11.590;2024-02-14T04:20:01;100330.22;;;5.65;70.62
80945;BME280;70400;50.934;11.590;2024-02-14T04:20:53;100338.69;;;5.69;70.46
80945;BME280;70400;50.934;11.590;2024-02-14T04:21:44;100327.41;;;5.68;70.65
80945;BME280;70400;50.934;11.590;2024-02-14T04:22:35;100328.75;;;5.61;70.74
80945;BME280;70400;50.934;11.590;2024-02-14T04:23:25;100315.88;;;5.71;70.42
80945;BME280;70400;50.934;11.590;2024-02-14T04:24:16;100315.97;;;5.69;70.60
80945;BME280;70400;50.934;11.590;2024-02-14T04:25:08;100320.81;;;5.62;70.57
80945;BME280;70400;50.934;11.590;2024-02-14T04:25:59;100321.31;;;5.55;70.90
80945;BME280;70400;50.934;11.590;2024-02-14T04:26:53;100312.63;;;5.67;70.41
80945;BME280;70400;50.934;11.590;2024-02-14T04:27:45;100312.84;;;5.64;70.08
80945;BME280;70400;50.934;11.590;2024-02-14T04:28:38;100311.91;;;5.65;70.13
80945;BME280;70400;50.934;11.590;2024-02-14T04:29:31;100314.09;;;5.71;70.18